Time;durP1;ratioP1;P1;durP2;ratioP2;P2;SDS_P1;SDS_P2;PMS_P1;PMS_P2;Temp;Humidity;BMP_temperature;BMP_pressure;BME280_temperature;BME280_humidity;BME280_pressure;Samples;Min_cycle;Max_cycle;Signal;HPM_P1;HPM_P2
2022/09/25 00:00:35;;;;;;;1.30;1.05;;;;;;;7.82;81.07;95011.19;5132871;27;20197;-71
2022/09/25 00:03:02;;;;;;;1.48;1.10;;;;;;;7.77;81.25;95009.41;5132589;27;20748;-71
2022/09/25 00:05:30;;;;;;;2.08;1.10;;;;;;;7.75;81.38;94998.13;5132891;27;20244;-72
2022/09/25 00:07:58;;;;;;;1.33;1.20;;;;;;;7.65;81.71;94998.34;5131286;27;20254;-72
2022/09/25 00:10:27;;;;;;;2.95;1.80;;;;;;;7.66;82.04;94997.19;5132919;27;20200;-72
2022/09/25 00:12:54;;;;;;;5.78;4.07;;;;;;;7.63;82.42;94997.81;5133004;27;20279;-72
2022/09/25 00:15:21;;;;;;;6.45;4.30;;;;;;;7.59;82.61;94996.03;5132909;27;20213;-71
2022/09/25 00:17:48;;;;;;;6.38;4.07;;;;;;;7.58;82.57;95002.50;5133066;27;20205;-72
2022/09/25 00:20:16;;;;;;;7.70;4.57;;;;;;;7.60;82.82;95003.81;5133039;27;20201;-70
2022/09/25 00:22:43;;;;;;;1.88;1.20;;;;;;;7.56;82.71;94997.41;5132555;27;20232;-71
2022/09/25 00:25:13;;;;;;;1.27;1.17;;;;;;;7.57;82.86;95001.72;5132728;27;20200;-72
2022/09/25 00:27:40;;;;;;;2.63;2.22;;;;;;;7.53;83.15;94992.63;5132644;27;20238;-72
2022/09/25 00:30:09;;;;;;;1.92;1.10;;;;;;;7.43;83.10;94992.81;5132298;27;20405;-72
2022/09/25 00:32:36;;;;;;;2.03;1.60;;;;;;;7.30;83.45;94993.59;5132383;27;20201;-72
2022/09/25 00:35:03;;;;;;;1.10;1.00;;;;;;;7.40;83.67;94993.41;5132245;27;20212;-72
2022/09/25 00:37:32;;;;;;;13.45;1.50;;;;;;;7.45;83.42;94994.13;5131880;27;20604;-71
2022/09/25 00:39:59;;;;;;;1.50;1.20;;;;;;;7.54;83.30;94998.81;5131867;27;20802;-71
2022/09/25 00:42:28;;;;;;;3.47;1.60;;;;;;;7.46;83.30;94981.44;5131666;27;20639;-71
2022/09/25 00:44:57;;;;;;;1.45;1.30;;;;;;;7.40;83.48;94982.63;5131814;27;20204;-71
2022/09/25 00:47:44;;;;;;;2.60;1.73;;;;;;;7.32;83.26;94983.31;5132358;27;20257;-71
2022/09/25 00:50:18;;;;;;;1.92;1.02;;;;;;;7.34;83.67;94983.84;5131874;27;20364;-70
2022/09/25 00:52:46;;;;;;;2.22;1.45;;;;;;;7.29;83.76;94970.44;5132201;27;20319;-71
2022/09/25 00:55:14;;;;;;;0.80;0.80;;;;;;;7.27;83.81;94983.41;5132369;27;20197;-71
2022/09/25 00:57:47;;;;;;;1.42;1.13;;;;;;;7.34;83.26;94990.03;5131560;27;20201;-72
2022/09/25 01:00:15;;;;;;;1.52;1.15;;;;;;;7.29;83.12;94990.09;5131625;27;20257;-72
2022/09/25 01:02:44;;;;;;;1.77;1.00;;;;;;;7.22;83.43;94986.22;5131710;27;20251;-72
2022/09/25 01:05:14;;;;;;;1.92;1.23;;;;;;;6.99;84.17;94972.59;5131249;27;20281;-72
2022/09/25 01:07:45;;;;;;;3.45;1.38;;;;;;;6.98;83.94;94979.06;5132229;27;20235;-72
2022/09/25 01:10:13;;;;;;;2.03;1.20;;;;;;;7.01;84.02;94975.78;5131365;27;20212;-72
2022/09/25 01:12:43;;;;;;;2.45;1.30;;;;;;;6.93;83.84;94979.19;5131876;27;20208;-72
2022/09/25 01:15:13;;;;;;;1.63;1.10;;;;;;;6.87;84.38;94974.97;5131678;27;20719;-72
2022/09/25 01:17:49;;;;;;;0.73;0.57;;;;;;;6.82;84.20;94974.25;5131088;27;20204;-72
2022/09/25 01:20:25;;;;;;;1.25;1.15;;;;;;;6.82;84.50;94967.00;5131602;27;20192;-72
2022/09/25 01:23:05;;;;;;;2.33;1.33;;;;;;;6.86;84.72;94970.66;5118858;27;20216;-72
2022/09/25 01:25:47;;;;;;;1.45;1.08;;;;;;;6.89;84.09;94963.91;5131519;27;20222;-72
2022/09/25 01:28:38;;;;;;;5.68;3.22;;;;;;;7.26;82.88;94962.94;5131345;27;20512;-72
2022/09/25 01:31:16;;;;;;;6.68;3.75;;;;;;;6.99;83.76;94956.44;5119637;27;20308;-72
2022/09/25 01:33:47;;;;;;;7.47;3.55;;;;;;;6.83;84.42;94957.81;5131495;27;20196;-72
2022/09/25 01:36:19;;;;;;;5.55;3.47;;;;;;;6.66;85.54;94962.94;5131128;27;20201;-71
2022/09/25 01:38:51;;;;;;;5.28;3.67;;;;;;;6.58;86.04;94966.28;5131293;27;20590;-71
2022/09/25 01:41:22;;;;;;;4.47;3.45;;;;;;;6.64;85.50;94975.91;5131416;27;20189;-72
2022/09/25 01:43:57;;;;;;;5.18;3.80;;;;;;;6.57;85.60;94967.38;5131206;27;20189;-72
2022/09/25 01:46:29;;;;;;;8.23;3.80;;;;;;;6.54;85.62;94973.38;5131181;27;20249;-71
2022/09/25 01:49:05;;;;;;;4.80;3.40;;;;;;;6.58;85.48;94974.38;5130788;27;20221;-72
2022/09/25 01:51:38;;;;;;;8.40;3.78;;;;;;;6.63;84.78;94979.69;5130953;27;20266;-72
2022/09/25 01:54:10;;;;;;;5.25;3.70;;;;;;;6.56;84.53;94979.25;5130984;27;20551;-72
2022/09/25 01:56:42;;;;;;;2.88;1.30;;;;;;;6.60;84.57;94980.25;5130801;27;20285;-72
2022/09/25 01:59:16;;;;;;;1.75;1.33;;;;;;;6.59;84.57;94984.03;5130759;27;20241;-72
2022/09/25 02:01:46;;;;;;;1.67;0.85;;;;;;;6.57;84.72;94980.84;5116966;27;20639;-72
2022/09/25 02:04:18;;;;;;;6.03;3.65;;;;;;;6.52;85.13;94976.34;5130670;27;20197;-72
2022/09/25 02:06:49;;;;;;;5.78;3.80;;;;;;;6.55;85.03;94975.78;5130690;27;20699;-71
2022/09/25 02:09:21;;;;;;;1.05;0.82;;;;;;;6.55;84.71;94969.59;5130656;27;20245;-71
2022/09/25 02:11:51;;;;;;;1.40;1.30;;;;;;;6.59;85.19;94957.94;5130380;27;20656;-71
2022/09/25 02:14:24;;;;;;;4.13;1.20;;;;;;;6.63;85.02;94958.13;5131053;27;20585;-72
2022/09/25 02:16:54;;;;;;;2.42;1.10;;;;;;;6.55;84.50;94966.91;5130888;27;20641;-71
2022/09/25 02:22:10;;;;;;;2.78;1.20;;;;;;;6.33;85.03;94970.97;5130752;27;20747;-71
2022/09/25 02:24:43;;;;;;;1.45;1.13;;;;;;;6.31;85.84;94972.34;5130943;27;20189;-71
2022/09/25 02:27:10;;;;;;;5.82;1.60;;;;;;;6.38;86.13;94962.84;5130695;27;20300;-72
2022/09/25 02:29:39;;;;;;;2.30;1.75;;;;;;;6.38;86.70;94978.97;5129548;27;20203;-71
2022/09/25 02:32:10;;;;;;;5.63;2.17;;;;;;;6.32;85.80;94969.38;5130604;27;20656;-71
2022/09/25 02:34:37;;;;;;;1.65;1.52;;;;;;;6.40;85.79;94984.88;5130566;27;20197;-72
2022/09/25 02:37:10;;;;;;;1.38;1.17;;;;;;;6.38;85.95;94984.38;5130280;28;20250;-72
2022/09/25 02:39:37;;;;;;;1.30;1.17;;;;;;;6.40;85.86;94974.13;5130490;28;20197;-71
2022/09/25 02:42:16;;;;;;;0.40;0.40;;;;;;;6.40;85.79;94971.44;5129996;27;20692;-72
2022/09/25 02:45:00;;;;;;;1.35;1.00;;;;;;;6.48;85.87;94966.47;5130639;28;20795;-71
2022/09/25 02:47:35;;;;;;;1.60;1.00;;;;;;;6.49;85.38;94963.47;5119159;28;20643;-72
2022/09/25 02:50:13;;;;;;;1.02;0.93;;;;;;;6.38;85.84;94973.59;5130153;27;20238;-70
2022/09/25 02:52:47;;;;;;;1.95;1.05;;;;;;;6.50;85.18;94975.03;5130286;28;20253;-72
2022/09/25 02:55:19;;;;;;;2.70;1.30;;;;;;;6.39;84.36;94967.13;5130211;28;20188;-72
2022/09/25 02:57:54;;;;;;;2.00;1.25;;;;;;;6.29;86.12;94969.94;5129997;28;20185;-71
2022/09/25 03:00:22;;;;;;;0.98;0.88;;;;;;;6.22;86.87;94979.50;5129990;28;20657;-71
2022/09/25 03:02:52;;;;;;;4.07;1.52;;;;;;;6.26;87.64;94983.22;5130108;27;20227;-70
2022/09/25 03:05:20;;;;;;;1.38;1.20;;;;;;;6.27;87.42;94972.16;5130280;27;20285;-70
2022/09/25 03:10:36;;;;;;;1.48;1.00;;;;;;;6.11;88.82;94967.28;5103004;28;20207;-71
2022/09/25 03:13:14;;;;;;;2.30;1.23;;;;;;;6.20;88.48;94982.47;5130255;28;20201;-71
2022/09/25 03:15:45;;;;;;;6.32;4.22;;;;;;;6.13;88.28;94960.53;5130008;27;20680;-72
2022/09/25 03:18:12;;;;;;;6.22;4.20;;;;;;;6.18;88.55;94963.13;5130555;27;20204;-73
2022/09/25 03:20:39;;;;;;;6.35;4.28;;;;;;;6.31;88.38;94967.78;5130346;28;20201;-72
2022/09/25 03:23:06;;;;;;;6.50;4.57;;;;;;;6.47;87.52;94967.53;5130025;28;20353;-72
2022/09/25 03:25:33;;;;;;;6.72;4.05;;;;;;;6.58;86.64;94966.28;5130099;27;20257;-72
2022/09/25 03:28:00;;;;;;;3.72;1.80;;;;;;;6.53;86.52;94959.13;5129676;28;20197;-72
2022/09/25 03:30:28;;;;;;;2.63;1.48;;;;;;;6.51;86.55;94965.88;5130114;27;20312;-72
2022/09/25 03:32:56;;;;;;;3.88;1.10;;;;;;;6.45;87.31;94964.34;5129993;28;20225;-72
2022/09/25 03:35:22;;;;;;;2.53;1.17;;;;;;;6.50;87.44;94964.28;5129624;27;20246;-72
2022/09/25 03:37:50;;;;;;;2.65;1.92;;;;;;;6.55;86.91;94969.59;5129872;27;20205;-71
2022/09/25 03:40:16;;;;;;;2.35;1.35;;;;;;;6.52;86.70;94952.13;5129586;27;20305;-71
2022/09/25 03:42:43;;;;;;;1.25;0.75;;;;;;;6.54;86.74;94959.91;5133063;27;20251;-71
2022/09/25 03:45:10;;;;;;;1.23;1.00;;;;;;;6.51;86.45;94961.28;5133809;27;20296;-71
2022/09/25 03:47:37;;;;;;;2.08;1.08;;;;;;;6.48;86.13;94969.16;5134449;27;20237;-70
2022/09/25 03:50:07;;;;;;;1.63;1.00;;;;;;;6.28;86.01;94964.91;5133901;27;20783;-71
2022/09/25 03:52:34;;;;;;;1.00;0.75;;;;;;;6.15;87.17;94971.00;5133983;27;20204;-71
2022/09/25 03:55:01;;;;;;;3.63;1.75;;;;;;;5.99;87.75;94973.09;5133640;27;20248;-71
2022/09/25 03:57:28;;;;;;;3.13;1.50;;;;;;;5.93;88.20;94966.97;5133793;27;20265;-71
2022/09/25 03:59:59;;;;;;;1.73;1.42;;;;;;;6.01;88.14;94968.25;5133267;27;20201;-71
2022/09/25 04:02:26;;;;;;;0.95;0.85;;;;;;;6.05;87.70;94970.03;5133071;27;20576;-71
2022/09/25 04:04:54;;;;;;;2.30;1.45;;;;;;;5.82;88.07;94975.44;5132999;27;20305;-72
2022/09/25 04:07:22;;;;;;;1.35;1.08;;;;;;;5.72;88.59;94977.19;5133608;27;20284;-71
2022/09/25 04:09:49;;;;;;;10.38;4.90;;;;;;;5.54;90.83;94986.00;5133013;27;20254;-72
2022/09/25 04:12:16;;;;;;;1.60;1.15;;;;;;;5.59;90.75;94993.22;5133021;27;20253;-72
2022/09/25 04:14:45;;;;;;;3.60;1.55;;;;;;;5.66;90.36;94994.44;5132685;27;20569;-72
2022/09/25 04:17:13;;;;;;;1.13;0.90;;;;;;;5.66;90.52;94991.75;5133130;27;20197;-72
2022/09/25 04:19:39;;;;;;;3.70;1.75;;;;;;;5.81;90.35;94984.59;5119070;27;20250;-72
2022/09/25 04:22:06;;;;;;;1.00;1.00;;;;;;;5.87;89.84;94978.06;5133118;27;20193;-72
2022/09/25 04:24:49;;;;;;;2.47;0.43;;;;;;;6.00;89.54;94998.91;5132937;27;20239;-72
2022/09/25 04:27:18;;;;;;;2.97;1.75;;;;;;;6.00;88.08;94998.91;5132527;27;20189;-71
2022/09/25 04:29:45;;;;;;;0.75;0.75;;;;;;;6.07;88.12;94996.66;5132616;27;20936;-71
2022/09/25 04:34:57;;;;;;;4.78;1.88;;;;;;;6.26;88.80;94992.09;5132142;27;20192;-71
2022/09/25 04:37:25;;;;;;;5.22;1.20;;;;;;;6.66;88.20;94979.09;5132666;27;20253;-71
2022/09/25 04:39:53;;;;;;;1.20;1.10;;;;;;;7.62;87.29;94980.06;5132905;27;20201;-70
2022/09/25 04:42:23;;;;;;;2.28;2.08;;;;;;;8.40;83.42;94978.94;5132758;27;20249;-72
2022/09/25 04:44:52;;;;;;;1.80;1.27;;;;;;;8.88;80.53;94973.72;5132445;27;20211;-72
2022/09/25 04:47:19;;;;;;;1.48;1.30;;;;;;;9.54;76.92;94965.84;5131507;27;20197;-71
2022/09/25 04:49:46;;;;;;;2.03;1.42;;;;;;;10.37;73.81;94969.41;5131778;27;20228;-71
2022/09/25 04:52:14;;;;;;;3.15;2.08;;;;;;;10.22;72.58;94967.94;5130791;27;20289;-71
2022/09/25 04:54:41;;;;;;;2.63;1.75;;;;;;;10.75;69.89;94963.34;5131959;27;20671;-71
2022/09/25 04:57:10;;;;;;;3.78;1.80;;;;;;;11.09;68.94;94965.19;5131948;27;20207;-72
2022/09/25 04:59:38;;;;;;;3.47;1.73;;;;;;;11.95;68.98;94957.56;5132308;27;20235;-71
2022/09/25 05:02:05;;;;;;;2.17;1.67;;;;;;;13.07;63.37;94953.22;5132117;27;20200;-72
2022/09/25 05:04:32;;;;;;;3.95;2.92;;;;;;;13.53;62.13;94955.59;5131303;27;20228;-71
2022/09/25 05:06:58;;;;;;;3.65;1.77;;;;;;;14.10;61.71;94957.44;5131570;27;20205;-71
2022/09/25 05:09:25;;;;;;;6.18;2.22;;;;;;;14.34;60.73;94955.88;5131974;27;20230;-72
2022/09/25 05:11:52;;;;;;;4.38;2.50;;;;;;;14.83;58.94;94946.44;5132096;27;20197;-71
2022/09/25 05:14:21;;;;;;;5.03;2.95;;;;;;;15.82;55.12;94936.59;5131943;27;20593;-72
2022/09/25 05:16:48;;;;;;;4.90;2.70;;;;;;;16.63;52.78;94937.72;5131731;27;20205;-72
2022/09/25 05:19:15;;;;;;;6.65;4.32;;;;;;;17.20;52.56;94922.47;5131907;27;20196;-71
2022/09/25 05:21:43;;;;;;;7.18;4.50;;;;;;;17.54;51.22;94926.22;5132081;27;20209;-71
2022/09/25 05:24:12;;;;;;;4.57;2.70;;;;;;;17.52;49.92;94923.03;5132124;27;20274;-71
2022/09/25 05:26:39;;;;;;;5.80;2.92;;;;;;;17.71;49.12;94926.56;5131624;27;20197;-71
2022/09/25 05:29:06;;;;;;;4.68;2.67;;;;;;;17.95;48.77;94919.09;5131666;27;20284;-72
2022/09/25 05:31:35;;;;;;;7.18;3.78;;;;;;;18.03;48.20;94915.34;5131779;27;20649;-71
2022/09/25 05:34:02;;;;;;;4.93;3.08;;;;;;;18.00;48.94;94916.06;5131829;27;20200;-71
2022/09/25 05:36:29;;;;;;;6.35;4.63;;;;;;;18.39;47.32;94916.66;5131258;27;20730;-71
2022/09/25 05:38:56;;;;;;;6.72;4.72;;;;;;;18.96;45.87;94923.72;5131717;27;20207;-71
2022/09/25 05:41:24;;;;;;;7.15;5.45;;;;;;;16.93;48.80;94929.75;5131465;27;20205;-70
2022/09/25 05:43:50;;;;;;;7.10;5.05;;;;;;;17.01;49.70;94926.78;5131076;27;20627;-71
2022/09/25 05:46:17;;;;;;;8.43;4.95;;;;;;;16.83;50.07;94931.09;5131427;27;20262;-70
2022/09/25 05:48:46;;;;;;;7.70;5.05;;;;;;;15.85;51.42;94935.91;5117442;27;20699;-70
2022/09/25 05:51:13;;;;;;;6.38;4.05;;;;;;;16.42;50.30;94951.69;5131267;27;20217;-70
2022/09/25 05:53:39;;;;;;;6.05;4.50;;;;;;;17.69;48.47;94939.03;5131346;27;20200;-70
2022/09/25 05:56:06;;;;;;;6.97;4.72;;;;;;;16.53;48.52;94943.75;5131192;27;20207;-71
2022/09/25 05:58:35;;;;;;;5.97;4.10;;;;;;;16.95;48.31;94936.44;5131466;27;20213;-70
2022/09/25 06:01:03;;;;;;;5.40;3.92;;;;;;;18.47;45.56;94941.06;5131161;27;20205;-71
2022/09/25 06:03:30;;;;;;;5.50;3.70;;;;;;;19.41;42.52;94927.34;5130721;27;20239;-71
2022/09/25 06:05:59;;;;;;;6.88;4.68;;;;;;;19.32;42.31;94935.13;5130845;27;20220;-70
2022/09/25 06:08:29;;;;;;;8.55;5.07;;;;;;;18.38;44.46;94926.84;5130604;27;20200;-71
2022/09/25 06:10:57;;;;;;;5.82;4.47;;;;;;;17.73;47.22;94932.47;5130432;27;20193;-70
2022/09/25 06:13:25;;;;;;;7.13;4.70;;;;;;;18.47;44.98;94929.31;5130314;27;20205;-70
2022/09/25 06:15:52;;;;;;;6.75;4.25;;;;;;;18.78;44.36;94928.97;5130532;27;20200;-70
2022/09/25 06:18:21;;;;;;;3.42;2.20;;;;;;;17.38;45.31;94934.53;5130613;27;20203;-70
2022/09/25 06:20:48;;;;;;;2.35;1.67;;;;;;;17.17;47.15;94932.19;5130644;27;20291;-70
2022/09/25 06:23:17;;;;;;;2.67;1.52;;;;;;;17.61;46.32;94927.16;5130553;27;20228;-70
2022/09/25 06:25:44;;;;;;;3.10;2.53;;;;;;;18.29;44.23;94936.50;5130713;27;20217;-71
2022/09/25 06:28:12;;;;;;;3.83;3.00;;;;;;;18.21;45.44;94941.06;5118646;27;20270;-70
2022/09/25 06:30:39;;;;;;;4.43;2.70;;;;;;;18.78;42.78;94928.97;5129052;27;20221;-71
2022/09/25 06:33:08;;;;;;;3.67;2.60;;;;;;;19.06;42.52;94925.81;5130562;28;20209;-71
2022/09/25 06:35:36;;;;;;;2.28;1.67;;;;;;;19.43;42.01;94922.28;5130522;28;20295;-71
2022/09/25 06:38:04;;;;;;;3.55;2.63;;;;;;;18.42;43.63;94932.38;5130672;28;20204;-71
2022/09/25 06:40:33;;;;;;;5.45;3.83;;;;;;;18.30;43.85;94947.09;5130212;27;20218;-70
2022/09/25 06:43:01;;;;;;;6.97;3.30;;;;;;;19.06;42.97;94934.03;5130183;27;20744;-70
2022/09/25 06:45:32;;;;;;;5.13;3.83;;;;;;;18.40;43.68;94931.97;5116486;28;20290;-70
2022/09/25 06:48:01;;;;;;;6.22;4.22;;;;;;;18.24;45.04;94937.59;5130034;28;20276;-72
2022/09/25 06:50:32;;;;;;;5.63;4.43;;;;;;;19.08;43.37;94931.72;5130002;27;20273;-71
2022/09/25 06:52:59;;;;;;;7.00;5.20;;;;;;;18.64;43.91;94928.00;5130368;28;20253;-71
2022/09/25 06:55:27;;;;;;;8.10;5.30;;;;;;;18.35;44.69;94933.06;5130158;27;20205;-71
2022/09/25 06:57:55;;;;;;;7.15;5.25;;;;;;;17.91;46.24;94929.22;5129965;28;20201;-70
2022/09/25 07:00:21;;;;;;;7.18;4.80;;;;;;;17.28;47.57;94926.91;5130205;28;20193;-71
2022/09/25 07:05:34;;;;;;;7.18;4.72;;;;;;;15.93;50.80;94952.13;5130415;27;20231;-71
2022/09/25 07:08:01;;;;;;;8.73;5.28;;;;;;;16.50;49.47;94944.44;5130153;28;20754;-69
2022/09/25 07:10:28;;;;;;;10.43;4.65;;;;;;;16.04;50.25;94960.56;5129879;28;20197;-70
2022/09/25 07:12:56;;;;;;;6.85;5.00;;;;;;;16.97;49.18;94953.28;5129606;28;20268;-70
2022/09/25 07:15:23;;;;;;;6.38;4.63;;;;;;;16.79;49.38;94965.84;5130021;27;20284;-71
2022/09/25 07:17:50;;;;;;;5.93;4.35;;;;;;;15.90;51.38;94976.59;5120514;27;20269;-71
2022/09/25 07:20:17;;;;;;;9.95;4.95;;;;;;;15.70;51.53;94977.66;5133579;27;20664;-69
2022/09/25 07:22:44;;;;;;;7.50;4.43;;;;;;;15.36;52.15;94985.31;5133387;27;20209;-70
2022/09/25 07:25:11;;;;;;;7.38;5.00;;;;;;;15.49;52.15;94989.59;5133551;27;20760;-69
2022/09/25 07:27:38;;;;;;;5.85;3.75;;;;;;;15.41;52.76;94985.09;5132998;27;20273;-70
2022/09/25 07:30:08;;;;;;;4.13;2.78;;;;;;;15.52;52.53;94983.44;5132854;27;20255;-71
2022/09/25 07:32:35;;;;;;;7.07;2.75;;;;;;;15.63;53.40;94975.53;5133177;27;20792;-69
2022/09/25 07:35:02;;;;;;;3.67;2.75;;;;;;;15.49;52.77;94989.59;5132958;27;20241;-74
2022/09/25 07:37:30;;;;;;;3.45;2.60;;;;;;;16.22;50.84;94986.38;5133656;27;20196;-73
2022/09/25 07:39:56;;;;;;;9.38;4.80;;;;;;;16.49;50.38;94968.25;5133383;27;20292;-71
2022/09/25 07:42:23;;;;;;;9.30;4.78;;;;;;;16.20;50.87;94969.53;5133567;27;20300;-72
2022/09/25 07:44:50;;;;;;;6.68;4.47;;;;;;;15.95;50.72;94954.50;5133589;27;20228;-73
2022/09/25 07:47:18;;;;;;;7.43;4.80;;;;;;;16.09;50.89;94946.63;5133442;27;20702;-70
2022/09/25 07:49:45;;;;;;;6.72;4.05;;;;;;;15.79;52.34;94945.50;5132764;27;20233;-73
2022/09/25 07:52:13;;;;;;;7.00;5.10;;;;;;;15.87;51.74;94941.78;5133289;27;20663;-72
2022/09/25 07:54:39;;;;;;;9.75;5.25;;;;;;;15.58;52.76;94938.34;5133392;27;20284;-74
2022/09/25 07:57:06;;;;;;;6.03;4.43;;;;;;;15.49;51.37;94934.97;5133334;27;20200;-74
2022/09/25 07:59:33;;;;;;;5.85;4.20;;;;;;;15.55;52.26;94917.22;5132576;27;20249;-73
2022/09/25 08:02:00;;;;;;;6.50;3.72;;;;;;;16.18;50.26;94928.09;5126693;27;20197;-73
2022/09/25 08:04:28;;;;;;;5.70;4.30;;;;;;;16.41;50.29;94925.47;5132806;27;20595;-74
2022/09/25 08:06:55;;;;;;;5.47;3.90;;;;;;;16.34;48.53;94926.13;5132707;27;20205;-76
2022/09/25 08:09:21;;;;;;;6.07;4.45;;;;;;;16.44;48.85;94923.97;5133400;27;20197;-77
2022/09/25 08:11:48;;;;;;;4.80;2.50;;;;;;;16.73;47.54;94937.16;5132640;27;20656;-78
2022/09/25 08:14:15;;;;;;;6.15;3.90;;;;;;;17.00;47.42;94927.94;5135747;27;20230;-72
2022/09/25 08:16:42;;;;;;;6.45;4.22;;;;;;;17.12;47.27;94918.78;5135261;27;20204;-76
2022/09/25 08:19:10;;;;;;;4.47;3.70;;;;;;;17.27;48.02;94911.63;5127188;27;20230;-76
2022/09/25 08:21:38;;;;;;;5.10;4.07;;;;;;;17.05;46.59;94911.25;5132738;27;20204;-77
2022/09/25 08:24:05;;;;;;;5.47;3.70;;;;;;;17.33;46.14;94904.72;5132389;27;20329;-75
2022/09/25 08:26:31;;;;;;;4.35;3.50;;;;;;;17.52;46.27;94906.59;5132132;27;20222;-74
2022/09/25 08:28:58;;;;;;;5.68;4.03;;;;;;;17.74;45.34;94898.44;5131004;27;20286;-76
2022/09/25 08:31:26;;;;;;;7.30;4.20;;;;;;;17.33;46.40;94888.28;5132244;27;20201;-73
2022/09/25 08:33:54;;;;;;;6.28;4.38;;;;;;;16.98;47.28;94889.19;5132788;27;20205;-75
2022/09/25 08:36:21;;;;;;;4.53;3.65;;;;;;;16.86;47.25;94891.28;5132677;27;20204;-76
2022/09/25 08:38:49;;;;;;;5.05;3.35;;;;;;;16.74;47.27;94894.97;5132149;27;20197;-76
2022/09/25 08:41:19;;;;;;;4.18;3.22;;;;;;;17.16;45.95;94880.53;5131662;27;20663;-75
2022/09/25 08:43:54;;;;;;;5.03;2.90;;;;;;;17.42;44.61;94883.34;5131637;27;20725;-76
2022/09/25 08:49:12;;;;;;;3.75;3.10;;;;;;;17.88;43.09;94888.84;5132222;27;20265;-75
2022/09/25 08:51:43;;;;;;;3.50;3.10;;;;;;;17.84;43.96;94901.69;5132479;27;20293;-76
2022/09/25 08:54:17;;;;;;;4.03;3.33;;;;;;;18.22;43.53;94889.75;5131839;27;20652;-75
2022/09/25 08:56:44;;;;;;;5.88;3.75;;;;;;;18.22;44.55;94879.56;5131623;27;20640;-74
2022/09/25 08:59:22;;;;;;;5.93;3.50;;;;;;;18.09;44.28;94891.91;5132649;27;20205;-74
2022/09/25 09:01:54;;;;;;;4.50;3.28;;;;;;;18.10;43.29;94888.00;5118876;27;20228;-75
2022/09/25 09:04:27;;;;;;;3.05;2.53;;;;;;;17.80;43.60;94881.66;5131677;27;20239;-74
2022/09/25 09:06:57;;;;;;;3.70;2.78;;;;;;;18.20;43.79;94876.41;5131790;27;20193;-75
2022/09/25 09:09:31;;;;;;;3.97;3.28;;;;;;;17.47;43.97;94882.28;5132072;27;20254;-75
2022/09/25 09:12:03;;;;;;;4.70;3.45;;;;;;;17.65;43.31;94872.41;5131486;27;20185;-75
2022/09/25 09:14:34;;;;;;;4.07;3.47;;;;;;;18.16;42.38;94870.09;5131379;27;20258;-75
2022/09/25 09:17:05;;;;;;;3.83;2.90;;;;;;;18.17;42.12;94857.97;5131758;27;20205;-77
2022/09/25 09:19:33;;;;;;;3.88;2.78;;;;;;;18.26;42.88;94852.22;5131643;27;20670;-75
2022/09/25 09:22:09;;;;;;;3.78;2.53;;;;;;;18.40;42.78;94850.44;5131087;27;20197;-76
2022/09/25 09:24:51;;;;;;;3.05;2.35;;;;;;;18.15;41.16;94851.28;5118268;27;20242;-75
2022/09/25 09:27:33;;;;;;;3.25;2.40;;;;;;;18.53;40.93;94844.72;5131396;27;20193;-75
2022/09/25 09:30:16;;;;;;;3.13;2.47;;;;;;;18.98;40.59;94844.53;5130653;27;20280;-75
2022/09/25 09:33:07;;;;;;;3.83;3.00;;;;;;;18.83;39.71;94834.53;5117731;27;20480;-73
2022/09/25 09:35:44;;;;;;;4.95;2.60;;;;;;;18.97;40.09;94848.44;5131206;27;20234;-76
2022/09/25 09:38:25;;;;;;;6.25;3.22;;;;;;;18.72;41.27;94837.16;5131262;27;20189;-77
2022/09/25 09:41:11;;;;;;;3.15;2.58;;;;;;;19.11;39.94;94837.59;5119527;27;20189;-75
2022/09/25 09:43:55;;;;;;;3.92;2.75;;;;;;;19.21;38.95;94838.06;5131348;27;20204;-74
2022/09/25 09:46:35;;;;;;;2.78;2.17;;;;;;;20.04;38.13;94827.41;5130399;27;20197;-72
2022/09/25 09:49:10;;;;;;;3.95;2.50;;;;;;;20.19;38.00;94826.34;5130871;27;20224;-75
2022/09/25 09:51:43;;;;;;;3.28;2.50;;;;;;;20.01;38.51;94833.69;5130594;27;20272;-74
2022/09/25 09:54:14;;;;;;;3.42;2.90;;;;;;;20.17;37.94;94820.44;5130463;27;20220;-72
2022/09/25 09:56:47;;;;;;;3.53;2.65;;;;;;;19.43;39.04;94823.38;5130764;27;20545;-72
2022/09/25 09:59:17;;;;;;;3.65;2.85;;;;;;;19.64;39.09;94829.09;5130915;27;20293;-72
2022/09/25 10:01:51;;;;;;;5.03;3.17;;;;;;;19.53;39.34;94825.47;5116709;27;20200;-73
2022/09/25 10:04:23;;;;;;;4.40;2.75;;;;;;;19.06;39.80;94826.16;5129343;27;20761;-74
2022/09/25 10:06:55;;;;;;;3.45;2.58;;;;;;;19.52;39.88;94812.91;5130273;27;20193;-73
2022/09/25 10:09:23;;;;;;;3.15;2.30;;;;;;;20.06;39.84;94814.88;5130997;27;20258;-73
2022/09/25 10:12:03;;;;;;;2.75;2.20;;;;;;;20.06;37.90;94822.31;5130414;27;20571;-73
2022/09/25 10:14:33;;;;;;;2.53;2.08;;;;;;;19.35;39.02;94813.50;5130967;27;20288;-73
2022/09/25 10:17:02;;;;;;;2.58;2.15;;;;;;;19.34;39.70;94811.91;5129736;27;20289;-73
2022/09/25 10:19:36;;;;;;;3.55;2.45;;;;;;;19.20;39.54;94807.06;5130818;27;20620;-73
2022/09/25 10:22:07;;;;;;;2.88;2.53;;;;;;;18.79;40.01;94811.75;5130366;27;20265;-73
2022/09/25 10:24:50;;;;;;;2.88;2.30;;;;;;;18.74;41.28;94806.59;5130365;27;20229;-73
2022/09/25 10:27:26;;;;;;;2.95;2.25;;;;;;;18.95;40.74;94806.84;5130195;27;20224;-73
2022/09/25 10:30:17;;;;;;;2.63;2.40;;;;;;;19.54;40.09;94804.28;5130461;27;20308;-74
2022/09/25 10:32:56;;;;;;;3.38;2.50;;;;;;;19.90;39.80;94794.31;5118546;28;20197;-73
2022/09/25 10:35:28;;;;;;;2.70;2.35;;;;;;;20.32;38.94;94783.56;5131806;27;20296;-73
2022/09/25 10:37:56;;;;;;;2.63;2.10;;;;;;;20.69;37.70;94777.06;5132674;27;20280;-73
2022/09/25 10:40:32;;;;;;;3.28;2.35;;;;;;;20.89;37.63;94772.81;5133204;28;20197;-73
2022/09/25 10:43:06;;;;;;;4.07;2.30;;;;;;;21.12;37.51;94770.47;5132980;28;20193;-73
2022/09/25 10:45:37;;;;;;;2.72;2.13;;;;;;;20.85;37.30;94766.50;5119458;28;20313;-73
2022/09/25 10:51:12;;;;;;;4.15;2.60;;;;;;;20.81;37.37;94771.19;5131670;27;20228;-73
2022/09/25 10:53:38;;;;;;;3.40;2.58;;;;;;;20.83;38.24;94771.59;5134497;27;20254;-73
2022/09/25 10:56:08;;;;;;;5.22;2.35;;;;;;;21.19;37.89;94769.72;5120249;27;20720;-73
2022/09/25 10:58:40;;;;;;;4.32;2.40;;;;;;;21.27;37.43;94766.59;5134288;27;20843;-73
2022/09/25 11:01:12;;;;;;;3.40;2.65;;;;;;;20.87;37.11;94759.41;5134283;27;20193;-73
2022/09/25 11:03:47;;;;;;;2.65;2.28;;;;;;;21.00;37.70;94757.06;5134263;27;20217;-73
2022/09/25 11:06:21;;;;;;;3.08;2.42;;;;;;;21.18;37.61;94752.38;5134017;27;20268;-74
2022/09/25 11:08:54;;;;;;;5.03;2.40;;;;;;;21.23;37.63;94749.25;5134053;27;20193;-74
2022/09/25 11:11:25;;;;;;;2.67;2.22;;;;;;;21.35;37.62;94747.28;5134054;27;20205;-74
2022/09/25 11:13:57;;;;;;;2.45;2.25;;;;;;;21.12;37.29;94748.44;5133794;27;20649;-74
2022/09/25 11:16:42;;;;;;;3.05;2.10;;;;;;;21.06;36.64;94738.97;5134160;27;20280;-72
2022/09/25 11:19:13;;;;;;;3.25;2.40;;;;;;;21.11;37.39;94735.84;5133764;27;20197;-73
2022/09/25 11:21:48;;;;;;;2.45;2.10;;;;;;;21.07;35.55;94740.56;5133306;27;20250;-72
2022/09/25 11:24:23;;;;;;;2.42;2.10;;;;;;;21.56;35.21;94742.59;5133474;27;20728;-73
2022/09/25 11:26:57;;;;;;;2.70;2.30;;;;;;;21.70;35.48;94733.50;5133481;27;20201;-72
2022/09/25 11:29:37;;;;;;;2.50;2.25;;;;;;;21.63;35.10;94733.50;5133639;27;20217;-72
2022/09/25 11:32:19;;;;;;;2.30;2.10;;;;;;;21.56;36.41;94733.53;5133436;27;20204;-73
2022/09/25 11:35:03;;;;;;;2.42;2.10;;;;;;;21.72;36.16;94725.63;5133969;27;20191;-73
2022/09/25 11:37:37;;;;;;;3.20;2.30;;;;;;;21.61;35.25;94727.59;5120567;27;20189;-73
2022/09/25 11:43:20;;;;;;;2.50;2.20;;;;;;;21.39;35.01;94712.25;5133079;27;20199;-73
2022/09/25 11:45:53;;;;;;;2.47;2.00;;;;;;;21.41;35.81;94710.69;5133061;27;20213;-74
2022/09/25 11:48:28;;;;;;;4.03;2.25;;;;;;;21.42;35.75;94705.97;5132769;27;20258;-74
2022/09/25 11:51:02;;;;;;;3.45;2.42;;;;;;;21.43;34.22;94707.53;5133151;27;20220;-72
2022/09/25 11:53:39;;;;;;;3.10;2.20;;;;;;;21.70;34.72;94700.41;5132635;27;20201;-73
2022/09/25 11:56:24;;;;;;;2.60;2.03;;;;;;;21.86;34.73;94689.75;5132914;27;20189;-73
2022/09/25 11:59:12;;;;;;;2.35;1.92;;;;;;;21.35;34.25;94694.94;5133167;27;20782;-73
2022/09/25 12:01:46;;;;;;;2.45;1.95;;;;;;;21.70;33.56;94689.38;5125387;27;20260;-73
2022/09/25 12:04:43;;;;;;;2.90;2.25;;;;;;;21.97;33.52;94684.97;5127243;27;20213;-72
2022/09/25 12:07:31;;;;;;;2.83;2.08;;;;;;;22.00;33.91;94685.41;5132486;27;20551;-73
2022/09/25 12:10:11;;;;;;;4.43;2.08;;;;;;;21.81;34.43;94679.13;5119595;27;20197;-73
2022/09/25 12:12:45;;;;;;;2.60;1.77;;;;;;;21.97;33.98;94676.72;5131711;27;20193;-73